createdAt,value
2023-02-11T00:00:03.645Z,40.25
2023-02-11T00:02:31.876Z,42.25
2023-02-11T00:04:58.816Z,43.97
2023-02-11T00:07:25.580Z,42.58
2023-02-11T00:09:52.408Z,43.10
2023-02-11T00:12:20.546Z,41.72
2023-02-11T00:14:47.458Z,43.30
2023-02-11T00:17:14.534Z,42.17
2023-02-11T00:19:41.499Z,41.97
2023-02-11T00:22:08.343Z,42.88
2023-02-11T00:24:36.113Z,42.53
2023-02-11T00:27:02.792Z,41.72
2023-02-11T00:29:30.978Z,41.17
2023-02-11T00:31:57.720Z,40.92
2023-02-11T00:34:25.081Z,42.05
2023-02-11T00:36:51.740Z,40.30
2023-02-11T00:39:18.389Z,38.53
2023-02-11T00:41:45.064Z,40.17
2023-02-11T00:44:11.784Z,40.42
2023-02-11T00:46:39.889Z,40.33
2023-02-11T00:49:06.789Z,39.95
2023-02-11T00:51:33.473Z,37.92
2023-02-11T00:54:00.242Z,39.00
2023-02-11T00:56:27.049Z,39.22
2023-02-11T00:58:53.847Z,37.63
2023-02-11T01:01:20.851Z,39.45
2023-02-11T01:03:49.103Z,37.92
2023-02-11T01:06:16.465Z,38.30
2023-02-11T01:08:43.688Z,38.00
2023-02-11T01:11:14.740Z,35.92
2023-02-11T01:13:42.235Z,38.08
2023-02-11T01:16:10.843Z,38.97
2023-02-11T01:18:38.561Z,38.53
2023-02-11T01:21:06.742Z,37.85
2023-02-11T01:23:33.648Z,37.95
2023-02-11T01:26:00.328Z,36.55
2023-02-11T01:28:28.795Z,38.45
2023-02-11T01:30:56.118Z,37.35
2023-02-11T01:33:23.283Z,38.67
2023-02-11T01:35:50.638Z,39.20
2023-02-11T01:38:21.185Z,37.38
2023-02-11T01:40:49.737Z,36.40
2023-02-11T01:43:16.712Z,35.45
2023-02-11T01:46:12.608Z,37.75
2023-02-11T01:48:43.216Z,37.10
2023-02-11T01:51:16.546Z,38.88
2023-02-11T01:53:46.499Z,38.53
2023-02-11T01:56:13.158Z,37.38
2023-02-11T01:58:42.747Z,38.15
2023-02-11T02:03:42.381Z,36.67
2023-02-11T02:06:16.665Z,36.58
2023-02-11T02:08:51.162Z,35.05
2023-02-11T02:11:18.190Z,35.90
2023-02-11T02:13:45.226Z,36.92
2023-02-11T02:16:13.498Z,34.75
2023-02-11T02:18:48.290Z,34.25
2023-02-11T02:22:14.124Z,34.63
2023-02-11T02:24:59.226Z,35.08
2023-02-11T02:27:55.329Z,33.97
2023-02-11T02:31:15.618Z,34.40
2023-02-11T02:33:51.262Z,32.22
2023-02-11T02:36:24.080Z,33.92
2023-02-11T02:38:55.597Z,33.22
2023-02-11T02:41:27.181Z,34.08
2023-02-11T02:43:54.485Z,30.52
2023-02-11T02:46:25.428Z,32.45
2023-02-11T02:48:54.990Z,31.98
2023-02-11T02:51:34.174Z,32.70
2023-02-11T02:54:17.442Z,32.38
2023-02-11T02:56:48.525Z,32.28
2023-02-11T02:59:27.367Z,30.30
2023-02-11T03:02:05.343Z,28.13
2023-02-11T03:04:38.161Z,29.65
2023-02-11T03:07:14.256Z,28.35
2023-02-11T03:09:45.934Z,28.98
2023-02-11T03:12:14.590Z,28.27
2023-02-11T03:14:41.623Z,26.85
2023-02-11T03:17:10.045Z,27.83
2023-02-11T03:19:41.257Z,27.98
2023-02-11T03:22:13.178Z,29.30
2023-02-11T03:24:42.020Z,27.67
2023-02-11T03:27:15.927Z,28.10
2023-02-11T03:29:49.665Z,28.70
2023-02-11T03:32:23.412Z,28.77
2023-02-11T03:34:56.409Z,29.95
2023-02-11T03:37:28.926Z,29.80
2023-02-11T03:40:00.312Z,30.27
2023-02-11T03:42:32.055Z,29.45
2023-02-11T03:45:03.680Z,30.55
2023-02-11T03:47:33.909Z,29.85
2023-02-11T03:50:05.036Z,30.15
2023-02-11T03:52:34.159Z,31.58
2023-02-11T03:55:03.203Z,30.90
2023-02-11T03:57:30.075Z,29.17
2023-02-11T03:59:58.393Z,29.25
2023-02-11T04:02:29.301Z,27.98
2023-02-11T04:04:56.497Z,28.60
2023-02-11T04:07:24.920Z,29.55
2023-02-11T04:09:52.329Z,29.23
2023-02-11T04:12:19.205Z,29.45
2023-02-11T04:14:46.015Z,28.88
2023-02-11T04:17:13.269Z,29.08
2023-02-11T04:19:39.984Z,30.33
2023-02-11T04:22:07.423Z,29.65
2023-02-11T04:24:35.555Z,29.17
2023-02-11T04:27:02.490Z,29.52
2023-02-11T04:29:29.138Z,30.95
2023-02-11T04:31:55.918Z,30.45
2023-02-11T04:34:22.777Z,31.00
2023-02-11T04:36:49.425Z,29.25
2023-02-11T04:39:16.171Z,29.10
2023-02-11T04:41:44.374Z,32.10
2023-02-11T04:44:11.155Z,31.60
2023-02-11T04:46:37.843Z,30.75
2023-02-11T04:49:04.498Z,30.77
2023-02-11T04:51:31.187Z,31.92
2023-02-11T04:53:57.875Z,31.98
2023-02-11T04:56:24.545Z,30.92
2023-02-11T04:58:52.605Z,30.60
2023-02-11T05:01:19.380Z,32.42
2023-02-11T05:03:46.167Z,31.08
2023-02-11T05:06:13.249Z,30.75
2023-02-11T05:08:40.009Z,31.65
2023-02-11T05:11:08.015Z,30.45
2023-02-11T05:13:34.833Z,31.95
2023-02-11T05:16:03.100Z,31.52
2023-02-11T05:18:29.766Z,31.00
2023-02-11T05:20:56.659Z,32.25
2023-02-11T05:23:23.471Z,31.92
2023-02-11T05:25:50.480Z,31.10
2023-02-11T05:28:17.347Z,32.80
2023-02-11T05:30:44.118Z,32.92
2023-02-11T05:33:12.271Z,34.13
2023-02-11T05:35:38.975Z,32.42
2023-02-11T05:38:05.640Z,31.70
2023-02-11T05:40:32.409Z,33.28
2023-02-11T05:42:59.139Z,33.65
2023-02-11T05:45:25.866Z,32.30
2023-02-11T05:47:52.525Z,31.15
2023-02-11T05:50:20.968Z,30.70
2023-02-11T05:52:47.666Z,31.65
2023-02-11T05:55:14.615Z,30.25
2023-02-11T05:57:41.338Z,31.00
2023-02-11T06:00:09.384Z,30.25
2023-02-11T06:02:36.193Z,30.27
2023-02-11T06:05:03.173Z,29.58
2023-02-11T06:07:31.217Z,31.40
2023-02-11T06:09:57.967Z,31.15
2023-02-11T06:12:24.721Z,31.00
2023-02-11T06:14:51.398Z,32.72
2023-02-11T06:17:18.162Z,32.15
2023-02-11T06:19:44.858Z,30.50
2023-02-11T06:22:11.617Z,33.25
2023-02-11T06:24:58.957Z,31.05
2023-02-11T06:27:26.333Z,32.75
2023-02-11T06:29:52.989Z,31.35
2023-02-11T06:32:39.498Z,32.58
2023-02-11T06:35:09.986Z,31.48
2023-02-11T06:37:38.133Z,30.45
2023-02-11T06:40:07.357Z,32.72
2023-02-11T06:42:34.102Z,33.28
2023-02-11T06:45:00.740Z,34.17
2023-02-11T06:47:27.388Z,32.72
2023-02-11T06:49:54.057Z,32.97
2023-02-11T06:52:20.757Z,32.88
2023-02-11T06:54:47.425Z,33.70
2023-02-11T06:57:15.465Z,32.25
2023-02-11T06:59:42.292Z,32.00
2023-02-11T07:02:09.915Z,32.72
2023-02-11T07:04:36.598Z,34.22
2023-02-11T07:07:03.323Z,35.38
2023-02-11T07:09:30.011Z,36.00
2023-02-11T07:11:56.695Z,34.15
2023-02-11T07:14:24.986Z,31.70
2023-02-11T07:16:51.699Z,31.55
2023-02-11T07:19:18.439Z,30.30
2023-02-11T07:21:45.134Z,28.48
2023-02-11T07:24:12.910Z,27.92
2023-02-11T07:26:41.119Z,27.83
2023-02-11T07:29:07.777Z,27.55
2023-02-11T07:31:36.037Z,26.58
2023-02-11T07:34:02.924Z,25.10
2023-02-11T07:36:30.741Z,27.00
2023-02-11T07:38:57.430Z,25.55
2023-02-11T07:41:25.712Z,26.48
2023-02-11T07:43:52.482Z,26.45
2023-02-11T07:46:21.512Z,25.13
2023-02-11T07:48:50.043Z,24.85
2023-02-11T07:51:18.953Z,24.67
2023-02-11T07:53:46.252Z,23.75
2023-02-11T07:56:14.607Z,24.25
2023-02-11T07:58:41.654Z,24.35
2023-02-11T08:01:10.249Z,23.83
2023-02-11T08:03:38.101Z,25.05
2023-02-11T08:06:08.145Z,29.13
2023-02-11T08:08:34.888Z,31.77
2023-02-11T08:11:06.595Z,34.63
2023-02-11T08:13:33.494Z,36.88
2023-02-11T08:16:00.207Z,36.90
2023-02-11T08:18:26.873Z,37.90
2023-02-11T08:20:53.555Z,36.60
2023-02-11T08:23:21.619Z,36.67
2023-02-11T08:25:48.303Z,36.45
2023-02-11T08:28:15.056Z,34.65
2023-02-11T08:30:41.767Z,33.38
2023-02-11T08:33:08.467Z,33.65
2023-02-11T08:35:35.572Z,35.42
2023-02-11T08:38:02.226Z,30.17
2023-02-11T08:40:30.295Z,31.83
2023-02-11T08:42:57.222Z,31.33
2023-02-11T08:45:23.868Z,30.55
2023-02-11T08:47:50.538Z,28.90
2023-02-11T08:50:17.351Z,30.67
2023-02-11T08:52:44.057Z,29.17
2023-02-11T08:55:11.154Z,29.10
2023-02-11T08:57:39.259Z,28.15
2023-02-11T09:00:07.651Z,24.08
2023-02-11T09:02:34.432Z,23.55
2023-02-11T09:05:01.114Z,23.90
2023-02-11T09:07:28.503Z,24.50
2023-02-11T09:09:55.164Z,25.80
2023-02-11T09:12:21.853Z,25.70
2023-02-11T09:14:49.915Z,26.70
2023-02-11T09:17:16.574Z,24.77
2023-02-11T09:19:43.217Z,26.08
2023-02-11T09:22:09.981Z,25.48
2023-02-11T09:24:36.730Z,27.40
2023-02-11T09:27:03.558Z,26.42
2023-02-11T09:29:30.310Z,26.15
2023-02-11T09:31:58.460Z,23.58
2023-02-11T09:34:25.156Z,23.63
2023-02-11T09:36:51.791Z,24.65
2023-02-11T09:39:19.350Z,22.48
2023-02-11T09:42:24.725Z,23.67
2023-02-11T09:44:52.368Z,23.45
2023-02-11T09:47:26.839Z,21.55
2023-02-11T09:50:00.194Z,21.02
2023-02-11T09:52:36.127Z,21.27
2023-02-11T09:55:05.237Z,20.38
2023-02-11T09:57:35.011Z,22.75
2023-02-11T10:00:15.980Z,21.75
2023-02-11T10:02:57.255Z,21.95
2023-02-11T10:05:36.788Z,23.35
2023-02-11T10:08:11.768Z,22.52
2023-02-11T10:10:50.449Z,22.70
2023-02-11T10:13:42.535Z,21.50
2023-02-11T10:16:21.756Z,22.83
2023-02-11T10:19:17.492Z,22.48
2023-02-11T10:21:57.450Z,22.67
2023-02-11T10:24:25.049Z,20.88
2023-02-11T10:26:52.381Z,20.52
2023-02-11T10:29:33.529Z,22.48
2023-02-11T10:32:04.155Z,24.25
2023-02-11T10:34:32.320Z,25.52
2023-02-11T10:36:58.937Z,19.17
2023-02-11T10:39:27.742Z,17.08
2023-02-11T10:41:57.768Z,16.53
2023-02-11T10:44:28.852Z,16.75
2023-02-11T10:46:57.374Z,16.85
2023-02-11T10:49:38.862Z,16.23
2023-02-11T10:52:27.786Z,16.55
2023-02-11T10:55:00.579Z,16.08
2023-02-11T10:57:31.230Z,15.45
2023-02-11T11:00:00.345Z,14.35
2023-02-11T11:02:29.983Z,14.57
2023-02-11T11:07:28.144Z,13.27
2023-02-11T11:09:58.378Z,14.57
2023-02-11T11:12:28.528Z,14.43
2023-02-11T11:14:56.301Z,14.77
2023-02-11T11:17:22.989Z,14.80
2023-02-11T11:19:49.597Z,14.85
2023-02-11T11:22:22.697Z,13.85
2023-02-11T11:24:50.226Z,12.45
2023-02-11T11:27:19.414Z,14.40
2023-02-11T11:29:49.422Z,13.05
2023-02-11T11:32:20.782Z,13.20
2023-02-11T11:34:51.306Z,13.02
2023-02-11T11:37:26.032Z,13.90
2023-02-11T11:39:57.457Z,13.73
2023-02-11T11:42:28.475Z,14.10
2023-02-11T11:44:59.254Z,13.07
2023-02-11T11:47:33.964Z,12.82
2023-02-11T11:50:26.851Z,13.38
2023-02-11T11:53:04.015Z,13.15
2023-02-11T11:55:35.248Z,12.90
2023-02-11T11:58:02.074Z,14.13
2023-02-11T12:00:37.744Z,14.88
2023-02-11T12:03:29.477Z,15.07
2023-02-11T12:06:11.635Z,14.95
2023-02-11T12:08:49.351Z,12.95
2023-02-11T12:11:26.024Z,13.38
2023-02-11T12:14:16.930Z,14.45
2023-02-11T12:16:55.553Z,15.43
2023-02-11T12:20:01.872Z,15.32
2023-02-11T12:22:41.207Z,15.32
2023-02-11T12:25:23.786Z,14.00
2023-02-11T12:27:56.734Z,13.75
2023-02-11T12:30:41.758Z,13.60
2023-02-11T12:33:19.832Z,13.55
2023-02-11T12:35:56.341Z,13.73
2023-02-11T12:38:38.974Z,14.00
2023-02-11T12:41:23.454Z,14.15
2023-02-11T12:43:50.612Z,13.98
2023-02-11T12:46:34.388Z,14.43
2023-02-11T12:49:24.269Z,14.43
2023-02-11T12:52:13.936Z,15.20
2023-02-11T12:57:18.100Z,15.25
2023-02-11T12:59:51.920Z,14.68
2023-02-11T13:02:28.145Z,14.48
2023-02-11T13:05:00.157Z,14.48
2023-02-11T13:07:31.605Z,14.15
2023-02-11T13:10:01.799Z,13.25
2023-02-11T13:12:33.623Z,13.88
2023-02-11T13:15:06.343Z,13.77
2023-02-11T13:17:37.982Z,14.18
2023-02-11T13:20:15.075Z,14.23
2023-02-11T13:22:46.858Z,14.88
2023-02-11T13:25:22.482Z,14.43
2023-02-11T13:27:57.801Z,14.05
2023-02-11T13:30:28.634Z,14.82
2023-02-11T13:33:16.315Z,14.32
2023-02-11T13:35:45.904Z,14.55
2023-02-11T13:40:45.699Z,15.70
2023-02-11T13:43:22.434Z,15.73
2023-02-11T13:45:50.330Z,16.77
2023-02-11T13:48:22.793Z,16.02
2023-02-11T13:50:52.110Z,15.25
2023-02-11T13:53:20.265Z,16.83
2023-02-11T13:55:49.692Z,15.45
2023-02-11T13:58:32.935Z,15.82
2023-02-11T14:00:59.619Z,15.38
2023-02-11T14:03:32.309Z,15.60
2023-02-11T14:06:17.195Z,15.50
2023-02-11T14:09:00.125Z,14.43
2023-02-11T14:11:48.902Z,13.13
2023-02-11T14:14:22.306Z,13.07
2023-02-11T14:17:29.435Z,12.27
2023-02-11T14:19:56.194Z,13.02
2023-02-11T14:22:26.270Z,13.13
2023-02-11T14:24:56.379Z,13.73
2023-02-11T14:27:33.444Z,13.57
2023-02-11T14:30:13.492Z,14.18
2023-02-11T14:32:58.190Z,13.63
2023-02-11T14:35:33.479Z,13.77
2023-02-11T14:38:10.000Z,13.10
2023-02-11T14:40:46.433Z,14.25
2023-02-11T14:43:18.692Z,12.80
2023-02-11T14:45:51.686Z,13.48
2023-02-11T14:48:20.141Z,12.30
2023-02-11T14:50:51.297Z,12.98
2023-02-11T14:53:21.392Z,12.80
2023-02-11T14:55:49.693Z,12.85
2023-02-11T14:58:18.517Z,13.52
2023-02-11T15:00:52.902Z,14.10
2023-02-11T15:03:34.444Z,12.82
2023-02-11T15:06:05.593Z,13.18
2023-02-11T15:08:34.644Z,12.73
2023-02-11T15:11:03.663Z,12.60
2023-02-11T15:13:31.813Z,11.68
2023-02-11T15:16:05.162Z,12.45
2023-02-11T15:18:35.367Z,12.20
2023-02-11T15:21:02.197Z,12.25
2023-02-11T15:23:30.587Z,11.48
2023-02-11T15:25:57.502Z,12.30
2023-02-11T15:28:26.831Z,12.70
2023-02-11T15:30:58.850Z,12.15
2023-02-11T15:33:27.122Z,12.25
2023-02-11T15:35:53.768Z,12.50
2023-02-11T15:38:20.406Z,12.27
2023-02-11T15:40:56.478Z,11.93
2023-02-11T15:43:23.221Z,13.00
2023-02-11T15:45:57.540Z,12.85
2023-02-11T15:48:27.851Z,13.02
2023-02-11T15:50:58.699Z,12.23
2023-02-11T15:53:29.949Z,12.88
2023-02-11T15:56:07.573Z,12.20
2023-02-11T15:58:37.084Z,12.23
2023-02-11T16:01:04.410Z,13.77
2023-02-11T16:03:31.323Z,13.80
2023-02-11T16:06:16.521Z,13.88
2023-02-11T16:08:55.564Z,13.95
2023-02-11T16:11:26.159Z,13.43
2023-02-11T16:13:52.809Z,14.57
2023-02-11T16:16:21.849Z,14.50
2023-02-11T16:19:03.326Z,14.38
2023-02-11T16:21:35.857Z,13.45
2023-02-11T16:24:02.817Z,13.75
2023-02-11T16:26:33.933Z,13.65
2023-02-11T16:29:10.473Z,14.10
2023-02-11T16:31:40.054Z,13.23
2023-02-11T16:34:14.035Z,12.85
2023-02-11T16:36:42.538Z,13.13
2023-02-11T16:39:10.311Z,13.43
2023-02-11T16:41:37.019Z,13.93
2023-02-11T16:44:03.812Z,12.98
2023-02-11T16:46:31.786Z,12.63
2023-02-11T16:49:06.175Z,13.30
2023-02-11T16:51:32.824Z,13.02
2023-02-11T16:54:00.795Z,13.95
2023-02-11T16:56:27.465Z,14.27
2023-02-11T16:58:54.122Z,13.90
2023-02-11T17:01:20.870Z,13.90
2023-02-11T17:03:47.990Z,13.73
2023-02-11T17:06:14.889Z,13.48
2023-02-11T17:08:41.533Z,13.43
2023-02-11T17:11:09.631Z,13.20
2023-02-11T17:13:36.276Z,12.40
2023-02-11T17:16:02.993Z,12.63
2023-02-11T17:18:29.692Z,12.50
2023-02-11T17:20:56.332Z,12.07
2023-02-11T17:23:23.025Z,12.30
2023-02-11T17:25:55.476Z,12.93
2023-02-11T17:28:23.581Z,13.00
2023-02-11T17:30:50.308Z,13.07
2023-02-11T17:33:17.130Z,12.82
2023-02-11T17:35:43.778Z,12.20
2023-02-11T17:38:10.436Z,12.50
2023-02-11T17:40:37.204Z,13.18
2023-02-11T17:43:04.524Z,14.00
2023-02-11T17:45:32.721Z,13.65
2023-02-11T17:47:59.477Z,13.35
2023-02-11T17:50:29.176Z,13.30
2023-02-11T17:52:56.700Z,12.85
2023-02-11T17:55:23.360Z,12.65
2023-02-11T17:57:50.021Z,13.00
2023-02-11T18:00:17.340Z,13.50
2023-02-11T18:02:45.388Z,13.43
2023-02-11T18:05:12.130Z,13.23
2023-02-11T18:07:38.802Z,12.98
2023-02-11T18:10:06.614Z,13.43
2023-02-11T18:12:33.264Z,13.70
2023-02-11T18:14:59.970Z,12.98
2023-02-11T18:17:26.639Z,15.18
2023-02-11T18:19:57.557Z,14.50
2023-02-11T18:22:25.015Z,14.27
2023-02-11T18:24:52.379Z,14.60
2023-02-11T18:27:19.168Z,13.60
2023-02-11T18:29:45.809Z,14.52
2023-02-11T18:32:12.703Z,14.50
2023-02-11T18:34:40.087Z,14.75
2023-02-11T18:37:08.378Z,15.02
2023-02-11T18:39:35.060Z,15.15
2023-02-11T18:42:01.708Z,14.25
2023-02-11T18:44:28.557Z,14.50
2023-02-11T18:46:55.257Z,13.90
2023-02-11T18:49:21.906Z,14.55
2023-02-11T18:51:48.658Z,15.25
2023-02-11T18:54:16.717Z,16.52
2023-02-11T18:56:43.433Z,16.85
2023-02-11T18:59:10.066Z,15.02
2023-02-11T19:01:36.799Z,14.27
2023-02-11T19:04:04.841Z,15.25
2023-02-11T19:06:33.911Z,13.20
2023-02-11T19:09:02.383Z,14.45
2023-02-11T19:11:32.236Z,17.13
2023-02-11T19:13:58.811Z,16.33
2023-02-11T19:16:25.459Z,16.88
2023-02-11T19:18:52.166Z,16.88
2023-02-11T19:21:18.839Z,17.75
2023-02-11T19:23:45.522Z,19.00
2023-02-11T19:26:12.168Z,19.33
2023-02-11T19:28:40.294Z,18.75
2023-02-11T19:31:08.635Z,19.60
2023-02-11T19:33:35.655Z,17.75
2023-02-11T19:36:04.349Z,16.75
2023-02-11T19:38:31.124Z,16.45
2023-02-11T19:40:58.251Z,16.77
2023-02-11T19:43:25.115Z,17.20
2023-02-11T19:45:53.540Z,18.85
2023-02-11T19:48:20.357Z,17.02
2023-02-11T19:50:47.132Z,17.50
2023-02-11T19:53:13.737Z,22.27
2023-02-11T19:55:40.428Z,25.42
2023-02-11T19:58:07.166Z,22.45
2023-02-11T20:00:33.806Z,21.88
2023-02-11T20:03:01.935Z,22.73
2023-02-11T20:05:28.685Z,21.85
2023-02-11T20:07:55.310Z,23.80
2023-02-11T20:10:23.252Z,26.90
2023-02-11T20:12:49.901Z,33.20
2023-02-11T20:15:16.558Z,39.88
2023-02-11T20:17:43.250Z,38.08
2023-02-11T20:20:11.953Z,40.97
2023-02-11T20:22:38.562Z,45.20
2023-02-11T20:25:06.118Z,48.60
2023-02-11T20:27:32.769Z,49.42
2023-02-11T20:29:59.400Z,48.80
2023-02-11T20:32:26.072Z,49.60
2023-02-11T20:34:52.737Z,49.53
2023-02-11T20:37:20.798Z,49.33
2023-02-11T20:39:47.424Z,49.42
2023-02-11T20:42:14.324Z,48.80
2023-02-11T20:44:41.279Z,47.25
2023-02-11T20:47:07.944Z,46.80
2023-02-11T20:49:34.656Z,47.28
2023-02-11T20:52:01.284Z,46.92
2023-02-11T20:54:29.400Z,47.47
2023-02-11T20:56:56.192Z,44.63
2023-02-11T20:59:23.037Z,45.35
2023-02-11T21:01:51.472Z,44.40
2023-02-11T21:04:20.256Z,43.83
2023-02-11T21:06:49.425Z,44.93
2023-02-11T21:09:17.813Z,42.97
2023-02-11T21:11:46.347Z,42.22
2023-02-11T21:14:13.390Z,41.58
2023-02-11T21:16:40.416Z,42.70
2023-02-11T21:19:07.711Z,44.28
2023-02-11T21:21:35.456Z,41.70
2023-02-11T21:24:02.130Z,39.05
2023-02-11T21:26:29.024Z,38.17
2023-02-11T21:28:57.183Z,39.25
2023-02-11T21:31:29.628Z,38.90
2023-02-11T21:33:57.007Z,37.15
2023-02-11T21:36:23.902Z,36.95
2023-02-11T21:38:50.553Z,36.67
2023-02-11T21:41:17.713Z,38.38
2023-02-11T21:43:44.677Z,34.90
2023-02-11T21:46:14.839Z,35.15
2023-02-11T21:48:41.960Z,33.50
2023-02-11T21:51:11.236Z,32.47
2023-02-11T21:53:37.877Z,29.88
2023-02-11T21:56:07.172Z,30.50
2023-02-11T21:58:33.818Z,30.30
2023-02-11T22:01:00.599Z,30.27
2023-02-11T22:03:28.673Z,28.70
2023-02-11T22:05:55.763Z,28.20
2023-02-11T22:08:22.590Z,28.58
2023-02-11T22:10:49.268Z,28.45
2023-02-11T22:13:15.948Z,28.75
2023-02-11T22:15:42.553Z,28.38
2023-02-11T22:18:09.241Z,28.90
2023-02-11T22:20:37.293Z,29.58
2023-02-11T22:23:04.013Z,28.48
2023-02-11T22:25:30.628Z,28.02
2023-02-11T22:27:57.330Z,30.02
2023-02-11T22:30:23.998Z,31.08
2023-02-11T22:32:50.650Z,31.42
2023-02-11T22:35:17.347Z,31.70
2023-02-11T22:37:45.360Z,32.05
2023-02-11T22:40:13.315Z,30.90
2023-02-11T22:42:40.005Z,31.83
2023-02-11T22:45:07.695Z,31.48
2023-02-11T22:47:34.324Z,33.75
2023-02-11T22:50:01.004Z,31.80
2023-02-11T22:52:27.647Z,33.50
2023-02-11T22:54:55.686Z,33.78
2023-02-11T22:57:22.341Z,35.45
2023-02-11T22:59:49.029Z,36.38
2023-02-11T23:02:15.773Z,34.92
2023-02-11T23:04:42.634Z,36.45
2023-02-11T23:07:09.310Z,35.75
2023-02-11T23:09:35.981Z,37.65
2023-02-11T23:12:04.537Z,36.45
2023-02-11T23:14:31.462Z,35.33
2023-02-11T23:16:58.204Z,37.38
2023-02-11T23:19:25.069Z,37.85
2023-02-11T23:21:52.022Z,37.60
2023-02-11T23:24:18.637Z,37.50
2023-02-11T23:26:45.513Z,37.38
2023-02-11T23:29:13.999Z,39.08
2023-02-11T23:31:43.146Z,37.90
2023-02-11T23:34:10.182Z,36.95
2023-02-11T23:36:37.458Z,36.33
2023-02-11T23:39:04.778Z,38.10
2023-02-11T23:41:31.556Z,36.58
2023-02-11T23:43:58.359Z,37.28
2023-02-11T23:46:27.582Z,35.85
2023-02-11T23:48:54.326Z,37.67
2023-02-11T23:51:21.182Z,36.58
2023-02-11T23:53:48.144Z,37.95
2023-02-11T23:56:18.731Z,38.28
2023-02-11T23:58:48.110Z,36.88
